Airfield :
LOGIN :

Register | Disclaimer

   EN    FR    IT 

 










Legend :    VFR   Marginal VFR   IFR   Intensive IFR   Very Intensive IFR
Visi :
Ceiling :
>= 8 km
>= 3000ft
5 to 8 km
1000 to 3000 ft
1500m to 5 km
500 to 1000 ft
800 to 1500m
200 to 500 ft
< 800m
< 200 ft
Symbols :   Thunderstorms  Fog  Heavy snow  Heavy precipitations  Wind > 20 kt
SIGMETs :     Misc.  Thunderstorms  Icing  Turbulence  Mountain Waves  Volcanic Ashes






- Airport Elevation : 424 ft
- IATA code : QGY


LHPR - Györ Per

CURRENT METAR :
  • 270445Z AUTO VRB02KT 9000 OVC004 M00/M00 Q1019

EXPIRED METARs :
  • 270415Z AUTO VRB02KT 7000 OVC004 M00/M00 Q1019
  • 270345Z AUTO VRB02KT 8000 OVC003 M00/M00 Q1020
  • 270315Z AUTO 34001KT 4500 BR OVC004 M00/M00 Q1020
  • 270245Z AUTO 34001KT 2000 BR VV004 M00/M00 Q1020
  • 270215Z AUTO 34004KT 1000 R30/1200D BR VV002 M00/M00 Q1020

Expired Forecast.



MET'MAP, your aeronautical weather chart ! - Copyright ORBIFLY December 2007 - Disclaimer

ORBIFLY MET'MAP TEAM :

Programming & Development : Alexandra Zaïnal
Concept & original design : Baudouin d'Aumeries
Assistance for programming : Marc-Olivier Méhu
Technical & hardware support : Manuel Goepfert

Contact : metmap@orbifly.com




SOURCES & CREDITS :

   NOAA